Time;durP1;ratioP1;P1;durP2;ratioP2;P2;SDS_P1;SDS_P2;PMS_P1;PMS_P2;Temp;Humidity;BMP_temperature;BMP_pressure;BME280_temperature;BME280_humidity;BME280_pressure;Samples;Min_cycle;Max_cycle;Signal;HPM_P1;HPM_P2
2021/06/29 00:00:15;;;;;;;4.78;2.88;;;;;;;;;;5054995;28;20025;-68
2021/06/29 00:02:41;;;;;;;7.38;3.10;;;;;;;;;;5070830;28;20020;-69
2021/06/29 00:05:08;;;;;;;8.40;3.22;;;;;;;;;;5052623;28;20037;-68
2021/06/29 00:07:34;;;;;;;8.63;3.10;;;;;;;;;;5051176;28;20477;-69
2021/06/29 00:10:00;;;;;;;44.00;3.75;;;;;;;;;;5052774;28;20436;-69
2021/06/29 00:12:26;;;;;;;17.10;2.63;;;;;;;;;;5051323;28;20107;-68
2021/06/29 00:14:52;;;;;;;10.15;2.65;;;;;;;;;;5052456;28;20025;-68
2021/06/29 00:17:18;;;;;;;5.70;2.80;;;;;;;;;;5052651;28;20040;-68
2021/06/29 00:19:44;;;;;;;6.28;2.50;;;;;;;;;;5052450;28;20021;-69
2021/06/29 00:22:10;;;;;;;6.90;2.95;;;;;;;;;;5051584;28;20426;-69
2021/06/29 00:24:36;;;;;;;7.28;2.55;;;;;;;;;;5052436;28;20029;-69
2021/06/29 00:27:02;;;;;;;4.25;2.42;;;;;;;;;;5052458;28;20027;-68
2021/06/29 00:29:28;;;;;;;7.07;2.50;;;;;;;;;;5052210;28;20037;-69
2021/06/29 00:31:54;;;;;;;4.53;2.30;;;;;;;;;;5052339;28;20025;-68
2021/06/29 00:34:20;;;;;;;4.68;2.35;;;;;;;;;;5050885;28;20029;-69
2021/06/29 00:36:46;;;;;;;4.63;2.10;;;;;;;;;;5050948;28;20029;-69
2021/06/29 00:39:12;;;;;;;4.03;2.15;;;;;;;;;;5050701;28;20049;-69
2021/06/29 00:41:39;;;;;;;4.93;2.40;;;;;;;;;;5052024;28;20540;-69
2021/06/29 00:44:05;;;;;;;11.55;2.13;;;;;;;;;;5052043;28;20074;-69
2021/06/29 00:46:31;;;;;;;6.40;2.20;;;;;;;;;;5051984;28;20485;-68
2021/06/29 00:48:57;;;;;;;3.70;2.20;;;;;;;;;;5052056;28;20037;-68
2021/06/29 00:51:23;;;;;;;4.55;2.00;;;;;;;;;;5051811;28;20021;-69
2021/06/29 00:53:50;;;;;;;5.82;2.20;;;;;;;;;;5051560;28;20029;-69
2021/06/29 00:56:19;;;;;;;5.85;2.17;;;;;;;;;;5051805;28;20037;-68
2021/06/29 00:58:45;;;;;;;4.95;2.20;;;;;;;;;;5051815;28;20021;-68
2021/06/29 01:01:12;;;;;;;5.70;2.20;;;;;;;;;;5051934;28;20025;-68
2021/06/29 01:03:41;;;;;;;4.80;2.28;;;;;;;;;;5050430;28;20033;-68
2021/06/29 01:06:09;;;;;;;4.32;2.10;;;;;;;;;;5051870;28;20092;-68
2021/06/29 01:08:35;;;;;;;4.50;2.13;;;;;;;;;;5071032;28;20035;-68
2021/06/29 01:11:01;;;;;;;7.88;2.30;;;;;;;;;;5091938;28;20016;-68
2021/06/29 01:13:29;;;;;;;5.82;2.30;;;;;;;;;;5073812;28;20078;-68
2021/06/29 01:15:58;;;;;;;5.95;2.42;;;;;;;;;;5091838;28;20027;-68
2021/06/29 01:18:24;;;;;;;4.05;2.25;;;;;;;;;;5076837;28;20496;-68
2021/06/29 01:20:51;;;;;;;4.20;1.83;;;;;;;;;;5077976;28;20016;-68
2021/06/29 01:23:21;;;;;;;5.97;2.25;;;;;;;;;;5078094;28;20690;-68
2021/06/29 01:25:47;;;;;;;3.67;2.17;;;;;;;;;;5077961;28;20437;-68
2021/06/29 01:28:25;;;;;;;6.18;2.42;;;;;;;;;;5096034;28;20036;-68
2021/06/29 01:31:24;;;;;;;3.60;1.75;;;;;;;;;;5077935;28;20016;-68
2021/06/29 01:33:43;;;;;;;5.70;2.60;;;;;;;;;;5093749;28;20039;-68
2021/06/29 01:36:10;;;;;;;4.07;1.90;;;;;;;;;;5095893;28;20816;-68
2021/06/29 01:38:37;;;;;;;4.25;2.00;;;;;;;;;;5096056;28;20101;-68
2021/06/29 01:41:03;;;;;;;5.03;2.38;;;;;;;;;;5095652;28;20020;-68
2021/06/29 01:43:32;;;;;;;5.28;1.83;;;;;;;;;;5095750;28;20024;-68
2021/06/29 01:45:59;;;;;;;4.53;1.75;;;;;;;;;;5077552;28;20025;-68
2021/06/29 01:48:25;;;;;;;3.75;1.80;;;;;;;;;;5095640;28;20032;-68
2021/06/29 01:50:55;;;;;;;3.85;1.73;;;;;;;;;;5077595;28;20051;-68
2021/06/29 01:53:22;;;;;;;6.78;1.80;;;;;;;;;;5095423;28;20124;-68
2021/06/29 01:55:48;;;;;;;5.72;2.05;;;;;;;;;;5094990;28;20040;-68
2021/06/29 01:58:21;;;;;;;4.55;1.95;;;;;;;;;;5095418;28;20081;-68
2021/06/29 02:00:48;;;;;;;4.13;1.88;;;;;;;;;;5086133;28;20058;-68
2021/06/29 02:03:14;;;;;;;4.90;1.50;;;;;;;;;;5074021;28;20032;-69
2021/06/29 02:05:40;;;;;;;6.60;2.20;;;;;;;;;;5058561;28;20028;-68
2021/06/29 02:08:06;;;;;;;5.70;1.80;;;;;;;;;;5070713;28;20028;-69
2021/06/29 02:10:32;;;;;;;5.78;2.03;;;;;;;;;;5068884;28;20016;-68
2021/06/29 02:12:58;;;;;;;4.60;2.10;;;;;;;;;;5070265;28;20032;-69
2021/06/29 02:15:25;;;;;;;4.68;2.22;;;;;;;;;;5070668;28;20024;-68
2021/06/29 02:17:51;;;;;;;5.95;1.92;;;;;;;;;;5069592;28;20099;-68
2021/06/29 02:20:17;;;;;;;6.43;2.05;;;;;;;;;;5054491;28;20016;-69
2021/06/29 02:22:45;;;;;;;5.82;2.45;;;;;;;;;;5068874;28;20226;-69
2021/06/29 02:25:12;;;;;;;5.60;2.22;;;;;;;;;;5069234;28;20024;-68
2021/06/29 02:27:38;;;;;;;6.28;2.25;;;;;;;;;;5053464;28;20400;-69
2021/06/29 02:30:04;;;;;;;3.55;2.00;;;;;;;;;;5070341;28;20024;-68
2021/06/29 02:32:30;;;;;;;6.90;2.67;;;;;;;;;;5069597;28;20013;-68
2021/06/29 02:34:56;;;;;;;6.93;2.22;;;;;;;;;;5069204;28;20024;-69
2021/06/29 02:37:23;;;;;;;4.35;2.38;;;;;;;;;;5068556;28;20020;-69
2021/06/29 02:39:49;;;;;;;5.78;2.05;;;;;;;;;;5053452;28;20028;-69
2021/06/29 02:42:18;;;;;;;7.43;2.28;;;;;;;;;;5069980;28;20028;-69
2021/06/29 02:44:44;;;;;;;4.40;1.80;;;;;;;;;;5068642;28;20027;-69
2021/06/29 02:47:11;;;;;;;3.38;2.13;;;;;;;;;;5068537;28;20020;-69
2021/06/29 02:49:37;;;;;;;7.63;2.35;;;;;;;;;;5068635;28;20028;-69
2021/06/29 02:52:03;;;;;;;3.90;2.30;;;;;;;;;;5069467;28;20170;-69
2021/06/29 02:54:29;;;;;;;5.20;2.13;;;;;;;;;;5069084;28;20069;-69
2021/06/29 02:56:56;;;;;;;4.18;1.80;;;;;;;;;;5069761;28;20107;-69
2021/06/29 02:59:23;;;;;;;4.38;2.08;;;;;;;;;;5061621;28;20029;-69
2021/06/29 03:01:50;;;;;;;7.75;2.50;;;;;;;;;;5068619;28;22137;-69
2021/06/29 03:04:16;;;;;;;4.55;2.22;;;;;;;;;;5068175;28;20142;-69
2021/06/29 03:06:42;;;;;;;6.35;2.45;;;;;;;;;;5070340;28;20469;-69
2021/06/29 03:09:08;;;;;;;8.52;2.53;;;;;;;;;;5068584;28;20048;-69
2021/06/29 03:11:35;;;;;;;4.82;2.15;;;;;;;;;;5069543;28;20017;-69
2021/06/29 03:14:01;;;;;;;5.63;2.00;;;;;;;;;;5069427;28;20692;-70
2021/06/29 03:16:27;;;;;;;3.75;1.70;;;;;;;;;;5052512;28;20019;-69
2021/06/29 03:18:53;;;;;;;5.68;2.60;;;;;;;;;;5067721;28;20101;-69
2021/06/29 03:21:19;;;;;;;4.38;2.25;;;;;;;;;;5051097;28;20016;-69
2021/06/29 03:23:46;;;;;;;4.00;2.13;;;;;;;;;;5066858;28;20060;-69
2021/06/29 03:26:12;;;;;;;5.72;2.35;;;;;;;;;;5066272;28;20060;-67
2021/06/29 03:28:38;;;;;;;9.10;2.17;;;;;;;;;;5066749;28;20042;-67
2021/06/29 03:31:04;;;;;;;6.03;2.40;;;;;;;;;;5068628;28;20032;-67
2021/06/29 03:33:30;;;;;;;7.05;2.47;;;;;;;;;;5068088;28;20016;-67
2021/06/29 03:35:56;;;;;;;5.22;2.38;;;;;;;;;;5067438;28;20055;-67
2021/06/29 03:38:22;;;;;;;7.65;2.42;;;;;;;;;;5068290;28;20062;-68
2021/06/29 03:40:48;;;;;;;5.88;2.40;;;;;;;;;;5067432;28;20032;-68
2021/06/29 03:43:14;;;;;;;7.22;2.50;;;;;;;;;;5068709;28;20039;-69
2021/06/29 03:45:40;;;;;;;7.22;2.72;;;;;;;;;;5068296;28;20045;-69
2021/06/29 03:48:07;;;;;;;8.52;2.72;;;;;;;;;;5050728;28;20405;-68
2021/06/29 03:50:33;;;;;;;7.43;2.70;;;;;;;;;;5068074;28;20033;-67
2021/06/29 03:52:59;;;;;;;8.63;2.47;;;;;;;;;;5050445;28;20044;-68
2021/06/29 03:55:25;;;;;;;6.72;3.08;;;;;;;;;;5068851;28;20061;-68
2021/06/29 03:57:51;;;;;;;6.57;2.33;;;;;;;;;;5052567;28;20103;-68
2021/06/29 04:00:17;;;;;;;7.65;2.40;;;;;;;;;;5065871;28;20013;-68
2021/06/29 04:02:43;;;;;;;5.07;2.55;;;;;;;;;;5068016;28;20090;-68
2021/06/29 04:05:10;;;;;;;6.10;2.50;;;;;;;;;;5068555;28;20025;-68
2021/06/29 04:07:36;;;;;;;6.85;2.30;;;;;;;;;;5066189;28;20029;-68
2021/06/29 04:10:03;;;;;;;7.93;3.00;;;;;;;;;;5066554;28;20086;-68
2021/06/29 04:12:30;;;;;;;5.88;2.35;;;;;;;;;;5051872;28;20370;-68
2021/06/29 04:14:56;;;;;;;8.63;2.78;;;;;;;;;;5051448;28;20098;-68
2021/06/29 04:17:22;;;;;;;5.20;2.70;;;;;;;;;;5064781;28;20500;-67
2021/06/29 04:19:48;;;;;;;6.60;2.78;;;;;;;;;;5067168;28;20028;-69
2021/06/29 04:22:14;;;;;;;5.05;2.50;;;;;;;;;;5066314;28;20440;-68
2021/06/29 04:24:40;;;;;;;10.88;2.60;;;;;;;;;;5067815;28;20024;-68
2021/06/29 04:27:07;;;;;;;7.80;3.03;;;;;;;;;;5066231;28;20021;-68
2021/06/29 04:29:33;;;;;;;6.35;3.03;;;;;;;;;;5066766;28;20036;-69
2021/06/29 04:31:59;;;;;;;9.13;3.03;;;;;;;;;;5068897;28;20025;-69
2021/06/29 04:34:25;;;;;;;6.85;2.88;;;;;;;;;;5052547;28;20065;-68
2021/06/29 04:36:52;;;;;;;6.22;2.80;;;;;;;;;;5066813;28;20077;-68
2021/06/29 04:39:18;;;;;;;12.02;2.83;;;;;;;;;;5066070;28;20024;-68
2021/06/29 04:41:44;;;;;;;6.03;3.00;;;;;;;;;;5067160;28;20550;-68
2021/06/29 04:44:10;;;;;;;8.40;2.90;;;;;;;;;;5052321;28;20433;-68
2021/06/29 04:46:36;;;;;;;7.70;2.97;;;;;;;;;;5066856;28;20047;-68
2021/06/29 04:49:02;;;;;;;6.18;3.10;;;;;;;;;;5067302;28;20060;-68
2021/06/29 04:51:28;;;;;;;5.43;2.47;;;;;;;;;;5049465;28;20072;-69
2021/06/29 04:53:54;;;;;;;7.95;3.50;;;;;;;;;;5067407;28;20016;-69
2021/06/29 04:56:20;;;;;;;6.30;2.97;;;;;;;;;;5068401;28;20029;-69
2021/06/29 04:58:53;;;;;;;8.18;3.20;;;;;;;;;;5066050;28;20492;-69
2021/06/29 05:01:19;;;;;;;9.68;3.65;;;;;;;;;;5067816;28;20025;-69
2021/06/29 05:03:45;;;;;;;7.47;3.80;;;;;;;;;;5049737;28;20043;-69
2021/06/29 05:06:12;;;;;;;12.25;3.75;;;;;;;;;;5066950;28;20024;-69
2021/06/29 05:08:38;;;;;;;12.35;3.60;;;;;;;;;;5067549;28;20032;-69
2021/06/29 05:11:04;;;;;;;7.38;3.75;;;;;;;;;;5048671;28;20036;-69
2021/06/29 05:13:30;;;;;;;10.57;3.60;;;;;;;;;;5066002;28;20416;-69
2021/06/29 05:15:56;;;;;;;12.80;3.70;;;;;;;;;;5049390;28;20114;-69
2021/06/29 05:18:22;;;;;;;9.80;4.07;;;;;;;;;;5067853;28;20077;-68
2021/06/29 05:20:48;;;;;;;8.07;3.45;;;;;;;;;;5067596;28;20053;-68
2021/06/29 05:23:14;;;;;;;7.95;3.72;;;;;;;;;;5066397;28;20115;-68
2021/06/29 05:25:40;;;;;;;7.63;4.00;;;;;;;;;;5065915;28;20036;-68
2021/06/29 05:28:06;;;;;;;7.28;4.00;;;;;;;;;;5065153;28;20466;-68
2021/06/29 05:30:32;;;;;;;10.52;4.07;;;;;;;;;;5066899;28;20044;-68
2021/06/29 05:32:58;;;;;;;5.90;3.75;;;;;;;;;;5067173;28;20479;-68
2021/06/29 05:35:25;;;;;;;9.77;3.88;;;;;;;;;;5051547;28;20455;-68
2021/06/29 05:37:51;;;;;;;12.30;3.65;;;;;;;;;;5064870;28;20477;-69
2021/06/29 05:40:17;;;;;;;7.93;3.78;;;;;;;;;;5066620;28;20504;-69
2021/06/29 05:42:43;;;;;;;10.07;4.35;;;;;;;;;;5066607;28;20108;-69
2021/06/29 05:45:12;;;;;;;7.75;4.25;;;;;;;;;;5068085;28;20036;-69
2021/06/29 05:47:38;;;;;;;10.07;4.78;;;;;;;;;;5066112;28;20031;-68
2021/06/29 05:50:05;;;;;;;10.73;4.53;;;;;;;;;;5065997;28;20044;-68
2021/06/29 05:52:31;;;;;;;14.07;4.70;;;;;;;;;;5065217;28;20202;-69
2021/06/29 05:54:57;;;;;;;11.18;5.20;;;;;;;;;;5065817;28;20048;-68
2021/06/29 05:57:24;;;;;;;12.40;4.30;;;;;;;;;;5068213;28;20024;-69
2021/06/29 05:59:50;;;;;;;6.72;4.20;;;;;;;;;;5068387;28;20017;-69
2021/06/29 06:02:17;;;;;;;9.77;4.28;;;;;;;;;;5065584;28;20021;-69
2021/06/29 06:04:44;;;;;;;9.48;4.90;;;;;;;;;;5068856;28;20040;-69
2021/06/29 06:07:10;;;;;;;10.30;5.05;;;;;;;;;;5068997;28;20098;-69
2021/06/29 06:09:36;;;;;;;10.55;4.88;;;;;;;;;;5070544;28;20041;-70
2021/06/29 06:12:02;;;;;;;21.70;4.13;;;;;;;;;;5071017;28;20024;-69
2021/06/29 06:14:28;;;;;;;9.60;4.55;;;;;;;;;;5070433;28;20093;-70
2021/06/29 06:16:54;;;;;;;16.05;4.65;;;;;;;;;;5052403;28;20033;-69
2021/06/29 06:19:20;;;;;;;10.75;4.60;;;;;;;;;;5052708;28;20028;-69
2021/06/29 06:21:46;;;;;;;9.90;4.80;;;;;;;;;;5071579;28;20020;-69
2021/06/29 06:24:13;;;;;;;10.10;4.80;;;;;;;;;;5063793;28;20071;-69
2021/06/29 06:26:39;;;;;;;8.80;4.78;;;;;;;;;;5068036;28;20598;-69
2021/06/29 06:29:05;;;;;;;9.77;5.28;;;;;;;;;;5068444;28;20041;-69
2021/06/29 06:31:31;;;;;;;20.02;5.45;;;;;;;;;;5070226;28;20190;-69
2021/06/29 06:33:57;;;;;;;9.40;5.50;;;;;;;;;;5069658;28;20048;-69
2021/06/29 06:36:23;;;;;;;13.13;4.80;;;;;;;;;;5053300;28;20024;-69
2021/06/29 06:38:50;;;;;;;16.10;4.82;;;;;;;;;;5070079;28;20020;-69
2021/06/29 06:41:16;;;;;;;10.57;5.35;;;;;;;;;;5068102;28;20032;-69
2021/06/29 06:43:45;;;;;;;9.35;4.72;;;;;;;;;;5070259;28;20042;-69
2021/06/29 06:46:12;;;;;;;11.88;5.43;;;;;;;;;;5070196;28;20052;-69
2021/06/29 06:48:38;;;;;;;15.18;5.72;;;;;;;;;;5068435;28;20437;-69
2021/06/29 06:51:05;;;;;;;10.82;4.65;;;;;;;;;;5069004;28;20071;-69
2021/06/29 06:53:31;;;;;;;8.05;4.63;;;;;;;;;;5052014;28;20051;-69
2021/06/29 06:55:57;;;;;;;11.65;4.20;;;;;;;;;;5067857;28;20044;-69
2021/06/29 06:58:25;;;;;;;10.88;5.22;;;;;;;;;;5067366;28;20024;-69
2021/06/29 07:00:51;;;;;;;13.05;6.13;;;;;;;;;;5070591;28;20166;-69
2021/06/29 07:03:17;;;;;;;12.50;4.28;;;;;;;;;;5067450;28;20032;-69
2021/06/29 07:05:43;;;;;;;9.85;5.40;;;;;;;;;;5068028;28;20037;-69
2021/06/29 07:08:09;;;;;;;13.73;5.13;;;;;;;;;;5068057;28;20106;-69
2021/06/29 07:10:35;;;;;;;11.63;5.93;;;;;;;;;;5052787;28;20020;-69
2021/06/29 07:13:01;;;;;;;12.45;5.22;;;;;;;;;;5067941;28;20473;-69
2021/06/29 07:15:29;;;;;;;15.93;5.20;;;;;;;;;;5065660;28;20024;-69
2021/06/29 07:17:55;;;;;;;8.93;4.85;;;;;;;;;;5067112;28;20024;-69
2021/06/29 07:20:21;;;;;;;9.68;4.28;;;;;;;;;;5066248;28;20058;-69
2021/06/29 07:22:47;;;;;;;12.95;4.68;;;;;;;;;;5069328;28;20480;-69
2021/06/29 07:25:13;;;;;;;12.15;5.32;;;;;;;;;;5068489;28;20028;-69
2021/06/29 07:27:40;;;;;;;15.40;4.00;;;;;;;;;;5066466;28;20040;-69
2021/06/29 07:30:07;;;;;;;7.88;4.30;;;;;;;;;;5068343;28;20099;-69
2021/06/29 07:32:33;;;;;;;9.85;4.10;;;;;;;;;;5068065;28;20097;-69
2021/06/29 07:34:59;;;;;;;8.27;4.20;;;;;;;;;;5068221;28;20021;-69
2021/06/29 07:37:26;;;;;;;6.75;3.30;;;;;;;;;;5067223;28;20464;-69
2021/06/29 07:39:52;;;;;;;9.02;4.60;;;;;;;;;;5067972;28;20044;-70
2021/06/29 07:42:18;;;;;;;11.32;4.28;;;;;;;;;;5066301;28;20039;-69
2021/06/29 07:44:44;;;;;;;7.43;4.10;;;;;;;;;;5050315;28;20047;-70
2021/06/29 07:47:11;;;;;;;8.20;4.03;;;;;;;;;;5068041;28;20021;-69
2021/06/29 07:49:37;;;;;;;9.70;4.10;;;;;;;;;;5068022;28;20044;-70
2021/06/29 07:52:03;;;;;;;15.57;5.53;;;;;;;;;;5067737;28;20113;-70
2021/06/29 07:54:29;;;;;;;14.35;4.95;;;;;;;;;;5067373;28;20048;-70
2021/06/29 07:56:55;;;;;;;7.78;4.18;;;;;;;;;;5067014;28;20025;-69
2021/06/29 07:59:21;;;;;;;8.60;4.57;;;;;;;;;;5067965;28;20048;-70
2021/06/29 08:01:47;;;;;;;8.50;4.13;;;;;;;;;;5069171;28;20028;-69
2021/06/29 08:04:14;;;;;;;13.00;4.75;;;;;;;;;;5065573;28;20037;-69
2021/06/29 08:06:40;;;;;;;15.95;5.65;;;;;;;;;;5067481;28;20051;-69
2021/06/29 08:09:06;;;;;;;13.50;4.40;;;;;;;;;;5066435;28;20072;-70
2021/06/29 08:11:34;;;;;;;13.95;5.20;;;;;;;;;;5063918;28;20109;-69
2021/06/29 08:14:01;;;;;;;16.08;5.53;;;;;;;;;;5066979;28;20024;-69
2021/06/29 08:16:27;;;;;;;9.88;4.38;;;;;;;;;;5052698;28;20165;-70
2021/06/29 08:18:54;;;;;;;14.20;4.20;;;;;;;;;;5056766;28;20025;-70
2021/06/29 08:21:20;;;;;;;10.55;4.70;;;;;;;;;;5052235;28;20481;-69
2021/06/29 08:23:46;;;;;;;10.48;4.20;;;;;;;;;;5052577;28;20405;-70
2021/06/29 08:26:12;;;;;;;9.65;4.57;;;;;;;;;;5052182;28;20149;-70
2021/06/29 08:28:38;;;;;;;10.48;4.60;;;;;;;;;;5052674;28;20025;-71
2021/06/29 08:31:05;;;;;;;15.75;5.10;;;;;;;;;;5052376;28;20075;-71
2021/06/29 08:33:31;;;;;;;9.95;4.30;;;;;;;;;;5052195;28;20048;-70
2021/06/29 08:35:57;;;;;;;9.70;4.15;;;;;;;;;;5050845;28;20040;-70
2021/06/29 08:38:24;;;;;;;16.83;4.25;;;;;;;;;;5052239;28;20022;-70
2021/06/29 08:40:50;;;;;;;11.10;3.67;;;;;;;;;;5052313;28;20116;-70
2021/06/29 08:43:17;;;;;;;7.85;4.03;;;;;;;;;;5053827;28;20070;-70
2021/06/29 08:45:44;;;;;;;11.07;4.40;;;;;;;;;;5054273;28;20048;-70
2021/06/29 08:48:10;;;;;;;9.57;3.50;;;;;;;;;;5071732;28;20067;-70
2021/06/29 08:50:39;;;;;;;10.98;3.10;;;;;;;;;;5070885;28;20047;-70
2021/06/29 08:53:06;;;;;;;11.50;4.57;;;;;;;;;;5070815;28;20654;-70
2021/06/29 08:55:34;;;;;;;11.55;3.95;;;;;;;;;;5072011;28;20562;-70
2021/06/29 08:58:00;;;;;;;10.73;3.40;;;;;;;;;;5072056;28;20027;-70
2021/06/29 09:00:26;;;;;;;7.53;3.00;;;;;;;;;;5071847;28;20024;-70
2021/06/29 09:02:52;;;;;;;7.25;3.28;;;;;;;;;;5071957;28;20435;-70
2021/06/29 09:05:25;;;;;;;9.48;3.20;;;;;;;;;;5071783;28;20024;-70
2021/06/29 09:08:07;;;;;;;12.48;3.05;;;;;;;;;;5053864;28;20031;-70
2021/06/29 09:10:33;;;;;;;5.50;2.43;;;;;;;;;;5050366;28;20025;-70
2021/06/29 09:12:59;;;;;;;6.55;2.90;;;;;;;;;;5051560;28;20092;-70
2021/06/29 09:15:26;;;;;;;8.77;2.80;;;;;;;;;;5051978;28;20047;-70
2021/06/29 09:17:53;;;;;;;9.32;3.42;;;;;;;;;;5051651;28;20017;-70
2021/06/29 09:20:29;;;;;;;6.43;3.17;;;;;;;;;;5051961;28;20021;-70
2021/06/29 09:22:57;;;;;;;6.18;3.15;;;;;;;;;;5051679;28;20100;-70
2021/06/29 09:25:27;;;;;;;8.63;3.78;;;;;;;;;;5050416;28;20056;-71
2021/06/29 09:27:53;;;;;;;13.23;3.40;;;;;;;;;;5051549;28;20081;-71
2021/06/29 09:30:30;;;;;;;8.00;3.30;;;;;;;;;;5051694;28;20057;-70
2021/06/29 09:33:04;;;;;;;12.15;3.42;;;;;;;;;;5050405;28;20025;-69
2021/06/29 09:35:31;;;;;;;7.53;3.38;;;;;;;;;;5051558;28;20377;-71
2021/06/29 09:37:57;;;;;;;9.15;3.05;;;;;;;;;;5051882;28;20101;-71
2021/06/29 09:40:26;;;;;;;7.85;2.95;;;;;;;;;;5055805;28;20013;-72
2021/06/29 09:42:52;;;;;;;8.18;2.78;;;;;;;;;;5054138;28;20032;-71
2021/06/29 09:45:31;;;;;;;12.98;2.83;;;;;;;;;;5055150;28;20131;-71
2021/06/29 09:47:59;;;;;;;9.45;3.60;;;;;;;;;;5055066;28;20355;-70
2021/06/29 09:50:46;;;;;;;7.10;2.78;;;;;;;;;;5053939;28;20064;-71
2021/06/29 09:53:22;;;;;;;8.35;2.70;;;;;;;;;;5055174;28;20256;-71
2021/06/29 09:55:49;;;;;;;8.35;3.55;;;;;;;;;;5055098;28;20064;-71
2021/06/29 09:58:16;;;;;;;5.80;2.70;;;;;;;;;;5055053;28;20021;-71
2021/06/29 10:00:42;;;;;;;9.30;3.13;;;;;;;;;;5053705;28;20112;-70
2021/06/29 10:03:35;;;;;;;8.27;2.50;;;;;;;;;;5054938;28;20485;-71
2021/06/29 10:06:10;;;;;;;7.40;3.17;;;;;;;;;;5034697;28;20515;-71
2021/06/29 10:08:38;;;;;;;11.20;2.65;;;;;;;;;;5053462;28;20029;-71
2021/06/29 10:11:14;;;;;;;11.38;3.10;;;;;;;;;;5053171;28;20067;-70
2021/06/29 10:13:49;;;;;;;7.07;3.10;;;;;;;;;;5054807;28;20095;-70
2021/06/29 10:16:16;;;;;;;9.77;3.40;;;;;;;;;;5054939;28;20017;-70
2021/06/29 10:18:48;;;;;;;9.10;3.45;;;;;;;;;;5054545;28;20104;-70
2021/06/29 10:21:17;;;;;;;8.73;3.05;;;;;;;;;;5053426;28;20125;-70
2021/06/29 10:23:43;;;;;;;8.02;2.70;;;;;;;;;;5054860;28;20020;-70
2021/06/29 10:26:10;;;;;;;4.72;2.50;;;;;;;;;;5054765;28;20548;-70
2021/06/29 10:28:36;;;;;;;6.90;3.03;;;;;;;;;;5054455;28;20025;-70
2021/06/29 10:31:03;;;;;;;4.93;2.90;;;;;;;;;;5054417;28;20095;-70
2021/06/29 10:33:30;;;;;;;9.45;2.70;;;;;;;;;;5054514;28;20009;-70
2021/06/29 10:35:56;;;;;;;16.80;2.97;;;;;;;;;;5054359;28;20111;-70
2021/06/29 10:38:23;;;;;;;7.63;2.47;;;;;;;;;;5054109;28;20163;-70
2021/06/29 10:40:53;;;;;;;7.07;2.78;;;;;;;;;;5054398;28;20041;-70
2021/06/29 10:43:20;;;;;;;8.88;2.85;;;;;;;;;;5054317;28;20037;-70
2021/06/29 10:45:52;;;;;;;10.20;3.17;;;;;;;;;;5054350;28;20033;-70
2021/06/29 10:48:18;;;;;;;;;;;;;;;;;;5054485;28;20025;-70
2021/06/29 10:50:44;;;;;;;7.05;2.95;;;;;;;;;;5051534;28;20277;-70
2021/06/29 10:53:29;;;;;;;6.88;2.63;;;;;;;;;;5054046;28;20048;-70
2021/06/29 10:55:55;;;;;;;9.98;2.90;;;;;;;;;;5053847;28;20068;-70
2021/06/29 10:58:42;;;;;;;10.45;3.13;;;;;;;;;;5053961;28;20028;-70
2021/06/29 11:01:21;;;;;;;10.63;3.13;;;;;;;;;;5053649;28;20017;-71
2021/06/29 11:03:48;;;;;;;10.43;3.30;;;;;;;;;;5053802;28;20057;-70
2021/06/29 11:06:30;;;;;;;7.10;2.92;;;;;;;;;;5053692;28;20051;-69
2021/06/29 11:08:59;;;;;;;6.95;2.92;;;;;;;;;;5053672;28;20037;-70
2021/06/29 11:11:26;;;;;;;8.93;3.33;;;;;;;;;;5052400;28;20396;-71
2021/06/29 11:13:52;;;;;;;8.55;3.13;;;;;;;;;;5053894;28;20125;-70
2021/06/29 11:16:18;;;;;;;5.03;2.72;;;;;;;;;;5063254;28;20066;-71
2021/06/29 11:18:45;;;;;;;7.05;2.97;;;;;;;;;;5072448;28;20055;-70
2021/06/29 11:21:33;;;;;;;18.45;2.92;;;;;;;;;;5072670;28;20073;-70
2021/06/29 11:24:00;;;;;;;8.00;2.95;;;;;;;;;;5073266;28;20108;-71
2021/06/29 11:26:27;;;;;;;8.05;2.50;;;;;;;;;;5055537;28;20029;-70
2021/06/29 11:29:01;;;;;;;6.30;3.92;;;;;;;;;;5073252;28;20035;-71
2021/06/29 11:31:32;;;;;;;6.90;3.13;;;;;;;;;;5070345;28;20039;-71
2021/06/29 11:34:10;;;;;;;11.55;3.25;;;;;;;;;;5071585;28;20591;-71
2021/06/29 11:36:38;;;;;;;6.70;3.17;;;;;;;;;;5071793;28;20104;-71
2021/06/29 11:39:20;;;;;;;5.40;2.88;;;;;;;;;;5072989;28;20051;-71
2021/06/29 11:41:49;;;;;;;6.25;3.03;;;;;;;;;;5055356;28;20024;-69
2021/06/29 11:44:15;;;;;;;6.80;2.90;;;;;;;;;;5055291;28;20089;-70
2021/06/29 11:46:52;;;;;;;9.60;3.33;;;;;;;;;;5055462;28;20028;-69
2021/06/29 11:49:26;;;;;;;11.73;4.07;;;;;;;;;;5054615;28;20051;-70
2021/06/29 11:51:53;;;;;;;9.75;3.17;;;;;;;;;;5072175;28;20024;-71
2021/06/29 11:54:29;;;;;;;9.70;3.83;;;;;;;;;;5072012;28;20045;-70
2021/06/29 11:56:56;;;;;;;8.40;3.85;;;;;;;;;;5054782;28;20036;-70
2021/06/29 11:59:29;;;;;;;6.50;3.00;;;;;;;;;;5072733;28;20052;-70
2021/06/29 12:02:04;;;;;;;7.95;3.83;;;;;;;;;;5054344;28;20064;-70
2021/06/29 12:04:30;;;;;;;6.20;3.53;;;;;;;;;;5072700;28;20021;-70
2021/06/29 12:06:59;;;;;;;8.60;3.40;;;;;;;;;;5072681;28;20029;-71
2021/06/29 12:09:43;;;;;;;7.90;3.20;;;;;;;;;;5072701;28;20064;-70
2021/06/29 12:12:17;;;;;;;8.95;3.45;;;;;;;;;;5034636;28;20013;-72
2021/06/29 12:14:43;;;;;;;8.57;3.38;;;;;;;;;;5051640;28;20052;-71
2021/06/29 12:17:09;;;;;;;9.43;3.90;;;;;;;;;;5052506;28;20037;-70
2021/06/29 12:19:35;;;;;;;7.18;4.38;;;;;;;;;;5051076;28;20055;-71
2021/06/29 12:22:01;;;;;;;11.07;3.83;;;;;;;;;;5052410;28;20017;-71
2021/06/29 12:24:27;;;;;;;8.55;3.38;;;;;;;;;;5051221;28;20032;-71
2021/06/29 12:26:53;;;;;;;9.07;3.67;;;;;;;;;;5052162;28;20056;-70
2021/06/29 12:29:37;;;;;;;14.77;4.40;;;;;;;;;;5052322;28;20077;-70
2021/06/29 12:32:19;;;;;;;12.45;3.72;;;;;;;;;;5052369;28;20107;-70
2021/06/29 12:34:46;;;;;;;10.68;4.30;;;;;;;;;;5052258;28;20028;-71
2021/06/29 12:37:12;;;;;;;12.10;3.40;;;;;;;;;;5052214;28;20469;-70
2021/06/29 12:39:38;;;;;;;7.70;3.42;;;;;;;;;;5052268;28;20437;-71
2021/06/29 12:42:12;;;;;;;8.15;3.28;;;;;;;;;;5051965;28;20068;-71
2021/06/29 12:44:38;;;;;;;11.50;3.33;;;;;;;;;;5052031;28;20024;-71
2021/06/29 12:47:05;;;;;;;12.23;3.70;;;;;;;;;;5051992;28;20105;-69
2021/06/29 12:49:33;;;;;;;9.40;3.40;;;;;;;;;;5052020;28;20559;-71
2021/06/29 12:52:08;;;;;;;7.45;3.15;;;;;;;;;;5052036;28;20049;-71
2021/06/29 12:54:34;;;;;;;17.17;3.33;;;;;;;;;;5051852;28;20072;-69
2021/06/29 12:57:06;;;;;;;13.73;3.63;;;;;;;;;;5051774;28;20029;-69
2021/06/29 12:59:38;;;;;;;8.55;3.50;;;;;;;;;;5050576;28;20025;-69
2021/06/29 13:02:05;;;;;;;6.75;3.67;;;;;;;;;;5051792;28;20048;-69
2021/06/29 13:04:35;;;;;;;11.05;4.05;;;;;;;;;;5051918;28;20516;-69
2021/06/29 13:07:05;;;;;;;10.68;3.90;;;;;;;;;;5051738;28;20052;-69
2021/06/29 13:09:32;;;;;;;8.82;3.60;;;;;;;;;;5051550;28;20629;-69
2021/06/29 13:12:02;;;;;;;5.68;3.80;;;;;;;;;;5051490;28;20059;-69
2021/06/29 13:14:29;;;;;;;13.38;4.05;;;;;;;;;;5050903;28;20061;-69
2021/06/29 13:17:09;;;;;;;12.18;5.22;;;;;;;;;;5051591;28;20059;-69
2021/06/29 13:19:36;;;;;;;7.80;3.67;;;;;;;;;;5051720;28;20079;-68
2021/06/29 13:22:07;;;;;;;5.68;3.60;;;;;;;;;;5051618;28;20017;-71
2021/06/29 13:24:46;;;;;;;7.43;3.45;;;;;;;;;;5050404;28;20057;-69
2021/06/29 13:27:13;;;;;;;7.70;4.03;;;;;;;;;;5051558;28;20532;-69
2021/06/29 13:29:40;;;;;;;10.02;3.50;;;;;;;;;;5051545;28;20106;-69
2021/06/29 13:32:07;;;;;;;10.02;4.57;;;;;;;;;;5050483;28;20406;-69
2021/06/29 13:34:35;;;;;;;11.02;3.60;;;;;;;;;;5051583;28;20498;-69
2021/06/29 13:37:33;;;;;;;9.45;4.55;;;;;;;;;;5051486;28;20079;-69
2021/06/29 13:40:20;;;;;;;9.52;4.53;;;;;;;;;;5011733;28;20033;-71
2021/06/29 13:42:46;;;;;;;10.60;3.85;;;;;;;;;;5051400;28;20036;-70
2021/06/29 13:45:13;;;;;;;9.23;4.43;;;;;;;;;;5051323;28;20059;-70
2021/06/29 13:47:48;;;;;;;7.15;4.45;;;;;;;;;;5051131;28;20104;-69
2021/06/29 13:50:15;;;;;;;5.97;4.18;;;;;;;;;;5050028;28;20550;-70
2021/06/29 13:53:00;;;;;;;9.73;4.90;;;;;;;;;;5051194;28;20584;-70
2021/06/29 13:55:31;;;;;;;12.13;4.97;;;;;;;;;;5050984;28;20104;-71
2021/06/29 13:58:14;;;;;;;5.63;3.50;;;;;;;;;;5051292;28;20462;-71
2021/06/29 14:00:44;;;;;;;9.27;4.18;;;;;;;;;;5051131;28;20029;-71
2021/06/29 14:03:12;;;;;;;6.82;4.25;;;;;;;;;;5051190;28;20021;-71
2021/06/29 14:05:42;;;;;;;6.20;4.43;;;;;;;;;;5051095;28;20032;-71
2021/06/29 14:08:15;;;;;;;8.68;4.70;;;;;;;;;;5049711;28;20033;-71
2021/06/29 14:10:42;;;;;;;7.68;3.50;;;;;;;;;;5050866;28;20064;-71
2021/06/29 14:13:09;;;;;;;10.27;3.58;;;;;;;;;;5049868;28;20056;-70
2021/06/29 14:15:36;;;;;;;7.97;4.20;;;;;;;;;;5051221;28;20075;-69
2021/06/29 14:18:02;;;;;;;12.20;3.90;;;;;;;;;;5051022;28;20493;-68
2021/06/29 14:20:28;;;;;;;8.18;3.35;;;;;;;;;;5051050;28;20017;-69
2021/06/29 14:22:55;;;;;;;7.22;3.22;;;;;;;;;;5051145;28;20021;-70
2021/06/29 14:25:21;;;;;;;6.78;3.67;;;;;;;;;;5053587;28;20010;-70
2021/06/29 14:27:51;;;;;;;6.00;3.53;;;;;;;;;;5054538;28;20028;-71
2021/06/29 14:30:17;;;;;;;5.20;3.20;;;;;;;;;;5053189;28;20033;-69
2021/06/29 14:32:43;;;;;;;9.57;4.40;;;;;;;;;;5053184;28;20175;-69
2021/06/29 14:35:10;;;;;;;5.05;3.00;;;;;;;;;;5054385;28;20032;-69
2021/06/29 14:37:36;;;;;;;5.20;3.80;;;;;;;;;;5052997;28;20465;-69
2021/06/29 14:40:03;;;;;;;8.30;3.58;;;;;;;;;;5054296;28;20083;-71
2021/06/29 14:42:30;;;;;;;10.18;4.43;;;;;;;;;;5053175;28;20031;-71
2021/06/29 14:44:56;;;;;;;12.70;3.75;;;;;;;;;;5053181;28;20456;-71